sensor_id;sensor_type;location;lat;lon;timestamp;pressure;altitude;pressure_sealevel;temperature;humidity
77299;BME280;66361;52.034;20.656;2024-01-15T00:03:06;97824.47;;;0.49;86.59
77299;BME280;66361;52.034;20.656;2024-01-15T00:06:50;97814.00;;;0.52;86.25
77299;BME280;66361;52.034;20.656;2024-01-15T00:10:34;97807.97;;;0.52;86.53
77299;BME280;66361;52.034;20.656;2024-01-15T00:14:18;97806.16;;;0.54;86.66
77299;BME280;66361;52.034;20.656;2024-01-15T00:18:03;97789.00;;;0.50;86.40
77299;BME280;66361;52.034;20.656;2024-01-15T00:21:50;97780.56;;;0.45;86.92
77299;BME280;66361;52.034;20.656;2024-01-15T00:25:34;97775.41;;;0.45;87.07
77299;BME280;66361;52.034;20.656;2024-01-15T00:29:19;97773.66;;;0.45;87.31
77299;BME280;66361;52.034;20.656;2024-01-15T00:33:03;97758.03;;;0.47;87.01
77299;BME280;66361;52.034;20.656;2024-01-15T00:36:48;97759.78;;;0.46;87.08
77299;BME280;66361;52.034;20.656;2024-01-15T00:40:32;97760.56;;;0.48;86.66
77299;BME280;66361;52.034;20.656;2024-01-15T00:44:16;97751.16;;;0.46;87.96
77299;BME280;66361;52.034;20.656;2024-01-15T00:48:00;97749.56;;;0.42;87.90
77299;BME280;66361;52.034;20.656;2024-01-15T00:51:44;97742.84;;;0.38;88.22
77299;BME280;66361;52.034;20.656;2024-01-15T00:55:32;97742.88;;;0.36;87.82
77299;BME280;66361;52.034;20.656;2024-01-15T00:59:16;97739.44;;;0.36;88.02
77299;BME280;66361;52.034;20.656;2024-01-15T01:03:00;97736.84;;;0.36;87.75
77299;BME280;66361;52.034;20.656;2024-01-15T01:06:45;97734.25;;;0.36;88.28
77299;BME280;66361;52.034;20.656;2024-01-15T01:10:29;97727.34;;;0.36;87.65
77299;BME280;66361;52.034;20.656;2024-01-15T01:14:14;97727.34;;;0.36;87.61
77299;BME280;66361;52.034;20.656;2024-01-15T01:17:58;97722.94;;;0.38;87.92
77299;BME280;66361;52.034;20.656;2024-01-15T01:21:42;97726.38;;;0.39;87.65
77299;BME280;66361;52.034;20.656;2024-01-15T01:25:27;97721.19;;;0.39;87.74
77299;BME280;66361;52.034;20.656;2024-01-15T01:29:10;97716.00;;;0.39;87.62
77299;BME280;66361;52.034;20.656;2024-01-15T01:32:55;97711.66;;;0.39;87.17
77299;BME280;66361;52.034;20.656;2024-01-15T01:36:39;97700.44;;;0.39;86.87
77299;BME280;66361;52.034;20.656;2024-01-15T01:40:23;97699.59;;;0.38;86.68
77299;BME280;66361;52.034;20.656;2024-01-15T01:44:07;97690.13;;;0.37;87.22
77299;BME280;66361;52.034;20.656;2024-01-15T01:47:51;97689.19;;;0.40;86.78
77299;BME280;66361;52.034;20.656;2024-01-15T01:51:38;97682.34;;;0.37;87.08
77299;BME280;66361;52.034;20.656;2024-01-15T01:55:24;97666.84;;;0.36;86.36
77299;BME280;66361;52.034;20.656;2024-01-15T01:59:11;97664.34;;;0.34;86.90
77299;BME280;66361;52.034;20.656;2024-01-15T02:08:11;97657.38;;;0.35;86.27
77299;BME280;66361;52.034;20.656;2024-01-15T02:11:56;97654.75;;;0.36;86.33
77299;BME280;66361;52.034;20.656;2024-01-15T02:15:40;97649.56;;;0.36;86.21
77299;BME280;66361;52.034;20.656;2024-01-15T02:19:24;97650.47;;;0.35;86.43
77299;BME280;66361;52.034;20.656;2024-01-15T02:23:11;97645.22;;;0.37;85.88
77299;BME280;66361;52.034;20.656;2024-01-15T02:26:55;97629.66;;;0.37;86.35
77299;BME280;66361;52.034;20.656;2024-01-15T02:30:40;97625.47;;;0.34;86.35
77299;BME280;66361;52.034;20.656;2024-01-15T02:34:26;97625.38;;;0.36;86.17
77299;BME280;66361;52.034;20.656;2024-01-15T02:38:11;97615.09;;;0.34;85.86
77299;BME280;66361;52.034;20.656;2024-01-15T02:41:55;97608.13;;;0.35;85.90
77299;BME280;66361;52.034;20.656;2024-01-15T02:45:40;97607.31;;;0.34;85.98
77299;BME280;66361;52.034;20.656;2024-01-15T02:49:24;97592.59;;;0.35;86.53
77299;BME280;66361;52.034;20.656;2024-01-15T02:53:08;97582.63;;;0.26;87.32
77299;BME280;66361;52.034;20.656;2024-01-15T02:56:53;97574.31;;;0.17;87.16
77299;BME280;66361;52.034;20.656;2024-01-15T03:00:37;97566.69;;;0.13;87.91
77299;BME280;66361;52.034;20.656;2024-01-15T03:04:21;97564.19;;;0.11;87.92
77299;BME280;66361;52.034;20.656;2024-01-15T03:08:05;97560.75;;;0.11;87.31
77299;BME280;66361;52.034;20.656;2024-01-15T03:11:50;97562.44;;;0.12;87.75
77299;BME280;66361;52.034;20.656;2024-01-15T03:15:36;97549.50;;;0.12;87.07
77299;BME280;66361;52.034;20.656;2024-01-15T03:19:19;97546.81;;;0.13;87.03
77299;BME280;66361;52.034;20.656;2024-01-15T03:23:03;97534.66;;;0.15;86.93
77299;BME280;66361;52.034;20.656;2024-01-15T03:26:47;97533.88;;;0.13;87.36
77299;BME280;66361;52.034;20.656;2024-01-15T03:30:31;97530.44;;;0.13;87.57
77299;BME280;66361;52.034;20.656;2024-01-15T03:34:17;97534.75;;;0.12;87.87
77299;BME280;66361;52.034;20.656;2024-01-15T03:38:02;97529.59;;;0.12;87.37
77299;BME280;66361;52.034;20.656;2024-01-15T03:41:46;97528.69;;;0.13;87.92
77299;BME280;66361;52.034;20.656;2024-01-15T03:45:30;97519.16;;;0.14;87.14
77299;BME280;66361;52.034;20.656;2024-01-15T03:49:14;97519.09;;;0.15;87.16
77299;BME280;66361;52.034;20.656;2024-01-15T03:52:59;97524.16;;;0.18;87.02
77299;BME280;66361;52.034;20.656;2024-01-15T03:56:43;97511.97;;;0.20;86.86
77299;BME280;66361;52.034;20.656;2024-01-15T04:00:27;97505.88;;;0.21;86.49
77299;BME280;66361;52.034;20.656;2024-01-15T04:04:11;97501.59;;;0.20;86.25
77299;BME280;66361;52.034;20.656;2024-01-15T04:08:00;97486.00;;;0.22;86.22
77299;BME280;66361;52.034;20.656;2024-01-15T04:11:44;97480.75;;;0.24;85.91
77299;BME280;66361;52.034;20.656;2024-01-15T04:15:29;97483.28;;;0.25;86.53
77299;BME280;66361;52.034;20.656;2024-01-15T04:19:13;97473.75;;;0.26;86.32
77299;BME280;66361;52.034;20.656;2024-01-15T04:22:57;97467.78;;;0.24;86.13
77299;BME280;66361;52.034;20.656;2024-01-15T04:26:42;97456.59;;;0.23;85.93
77299;BME280;66361;52.034;20.656;2024-01-15T04:30:26;97457.50;;;0.22;85.72
77299;BME280;66361;52.034;20.656;2024-01-15T04:34:10;97452.31;;;0.22;85.47
77299;BME280;66361;52.034;20.656;2024-01-15T04:37:54;97450.44;;;0.26;85.39
77299;BME280;66361;52.034;20.656;2024-01-15T04:41:38;97441.88;;;0.24;86.05
77299;BME280;66361;52.034;20.656;2024-01-15T04:45:24;97441.88;;;0.24;85.96
77299;BME280;66361;52.034;20.656;2024-01-15T04:49:11;97429.75;;;0.24;86.22
77299;BME280;66361;52.034;20.656;2024-01-15T04:52:55;97428.84;;;0.25;85.10
77299;BME280;66361;52.034;20.656;2024-01-15T04:56:39;97420.09;;;0.28;85.79
77299;BME280;66361;52.034;20.656;2024-01-15T05:00:25;97419.25;;;0.27;85.71
77299;BME280;66361;52.034;20.656;2024-01-15T05:04:09;97420.09;;;0.28;85.26
77299;BME280;66361;52.034;20.656;2024-01-15T05:07:53;97417.50;;;0.28;85.54
77299;BME280;66361;52.034;20.656;2024-01-15T05:11:37;97414.00;;;0.29;85.24
77299;BME280;66361;52.034;20.656;2024-01-15T05:15:20;97413.09;;;0.30;85.10
77299;BME280;66361;52.034;20.656;2024-01-15T05:19:07;97408.81;;;0.29;84.80
77299;BME280;66361;52.034;20.656;2024-01-15T05:22:51;97409.72;;;0.28;84.53
77299;BME280;66361;52.034;20.656;2024-01-15T05:26:36;97413.94;;;0.30;84.81
77299;BME280;66361;52.034;20.656;2024-01-15T05:30:20;97412.97;;;0.33;84.07
77299;BME280;66361;52.034;20.656;2024-01-15T05:34:04;97415.50;;;0.34;84.40
77299;BME280;66361;52.034;20.656;2024-01-15T05:37:49;97399.09;;;0.34;83.61
77299;BME280;66361;52.034;20.656;2024-01-15T05:41:33;97405.94;;;0.35;84.13
77299;BME280;66361;52.034;20.656;2024-01-15T05:45:17;97406.88;;;0.34;84.18
77299;BME280;66361;52.034;20.656;2024-01-15T05:49:02;97407.72;;;0.34;83.27
77299;BME280;66361;52.034;20.656;2024-01-15T05:52:46;97413.66;;;0.36;83.94
77299;BME280;66361;52.034;20.656;2024-01-15T05:56:32;97408.47;;;0.36;83.34
77299;BME280;66361;52.034;20.656;2024-01-15T06:00:16;97397.25;;;0.36;83.74
77299;BME280;66361;52.034;20.656;2024-01-15T06:04:01;97398.16;;;0.35;83.11
77299;BME280;66361;52.034;20.656;2024-01-15T06:07:45;97400.00;;;0.33;83.68
77299;BME280;66361;52.034;20.656;2024-01-15T06:11:29;97390.34;;;0.36;83.35
77299;BME280;66361;52.034;20.656;2024-01-15T06:15:15;97380.88;;;0.35;82.72
77299;BME280;66361;52.034;20.656;2024-01-15T06:18:59;97388.88;;;0.31;83.50
77299;BME280;66361;52.034;20.656;2024-01-15T06:22:43;97381.88;;;0.33;83.37
77299;BME280;66361;52.034;20.656;2024-01-15T06:26:27;97376.69;;;0.33;83.09
77299;BME280;66361;52.034;20.656;2024-01-15T06:30:12;97373.25;;;0.32;82.90
77299;BME280;66361;52.034;20.656;2024-01-15T06:33:58;97380.97;;;0.34;82.47
77299;BME280;66361;52.034;20.656;2024-01-15T06:37:42;97366.44;;;0.30;82.04
77299;BME280;66361;52.034;20.656;2024-01-15T06:41:26;97378.28;;;0.35;82.39
77299;BME280;66361;52.034;20.656;2024-01-15T06:45:09;97363.50;;;0.37;81.64
77299;BME280;66361;52.034;20.656;2024-01-15T06:48:53;97359.94;;;0.40;81.23
77299;BME280;66361;52.034;20.656;2024-01-15T06:52:39;97374.66;;;0.39;81.73
77299;BME280;66361;52.034;20.656;2024-01-15T06:56:23;97374.72;;;0.38;82.27
77299;BME280;66361;52.034;20.656;2024-01-15T07:00:07;97364.97;;;0.43;81.97
77299;BME280;66361;52.034;20.656;2024-01-15T07:03:51;97367.56;;;0.43;82.08
77299;BME280;66361;52.034;20.656;2024-01-15T07:07:35;97371.66;;;0.48;81.82
77299;BME280;66361;52.034;20.656;2024-01-15T07:11:21;97367.03;;;0.55;81.60
77299;BME280;66361;52.034;20.656;2024-01-15T07:15:04;97371.72;;;0.47;82.40
77299;BME280;66361;52.034;20.656;2024-01-15T07:18:50;97375.84;;;0.51;82.93
77299;BME280;66361;52.034;20.656;2024-01-15T07:22:35;97376.41;;;0.39;84.05
77299;BME280;66361;52.034;20.656;2024-01-15T07:26:21;97383.81;;;0.28;84.30
77299;BME280;66361;52.034;20.656;2024-01-15T07:30:05;97377.59;;;0.32;84.62
77299;BME280;66361;52.034;20.656;2024-01-15T07:33:50;97385.03;;;0.39;84.50
77299;BME280;66361;52.034;20.656;2024-01-15T07:37:34;97381.25;;;0.46;84.41
77299;BME280;66361;52.034;20.656;2024-01-15T07:41:18;97372.34;;;0.52;84.30
77299;BME280;66361;52.034;20.656;2024-01-15T07:45:04;97391.69;;;0.45;84.02
77299;BME280;66361;52.034;20.656;2024-01-15T07:48:48;97403.53;;;0.50;84.19
77299;BME280;66361;52.034;20.656;2024-01-15T07:52:34;97386.09;;;0.54;85.30
77299;BME280;66361;52.034;20.656;2024-01-15T07:56:20;97400.53;;;0.41;85.26
77299;BME280;66361;52.034;20.656;2024-01-15T08:00:06;97410.50;;;0.30;86.39
77299;BME280;66361;52.034;20.656;2024-01-15T08:03:52;97401.75;;;0.32;86.54
77299;BME280;66361;52.034;20.656;2024-01-15T08:07:37;97399.66;;;0.40;86.39
77299;BME280;66361;52.034;20.656;2024-01-15T08:11:21;97396.88;;;0.45;85.17
77299;BME280;66361;52.034;20.656;2024-01-15T08:15:07;97395.69;;;0.52;85.21
77299;BME280;66361;52.034;20.656;2024-01-15T08:18:51;97402.84;;;0.47;85.32
77299;BME280;66361;52.034;20.656;2024-01-15T08:22:35;97403.84;;;0.43;86.19
77299;BME280;66361;52.034;20.656;2024-01-15T08:26:20;97396.81;;;0.46;86.71
77299;BME280;66361;52.034;20.656;2024-01-15T08:30:04;97407.50;;;0.39;86.56
77299;BME280;66361;52.034;20.656;2024-01-15T08:33:51;97404.97;;;0.37;86.07
77299;BME280;66361;52.034;20.656;2024-01-15T08:37:35;97413.31;;;0.44;86.16
77299;BME280;66361;52.034;20.656;2024-01-15T08:41:19;97412.22;;;0.68;85.72
77299;BME280;66361;52.034;20.656;2024-01-15T08:45:08;97416.72;;;0.83;84.20
77299;BME280;66361;52.034;20.656;2024-01-15T08:48:54;97413.81;;;1.08;83.71
77299;BME280;66361;52.034;20.656;2024-01-15T08:52:38;97404.22;;;1.10;82.75
77299;BME280;66361;52.034;20.656;2024-01-15T08:56:22;97409.63;;;1.42;82.06
77299;BME280;66361;52.034;20.656;2024-01-15T09:00:07;97400.94;;;1.60;80.35
77299;BME280;66361;52.034;20.656;2024-01-15T09:03:51;97399.78;;;1.83;79.61
77299;BME280;66361;52.034;20.656;2024-01-15T09:07:37;97402.72;;;1.94;77.82
77299;BME280;66361;52.034;20.656;2024-01-15T09:11:21;97396.41;;;1.81;76.49
77299;BME280;66361;52.034;20.656;2024-01-15T09:15:06;97403.06;;;1.69;75.40
77299;BME280;66361;52.034;20.656;2024-01-15T09:18:51;97396.38;;;1.65;74.70
77299;BME280;66361;52.034;20.656;2024-01-15T09:22:36;97388.47;;;1.66;74.63
77299;BME280;66361;52.034;20.656;2024-01-15T09:26:21;97383.75;;;1.74;73.77
77299;BME280;66361;52.034;20.656;2024-01-15T09:30:07;97362.63;;;1.98;71.41
77299;BME280;66361;52.034;20.656;2024-01-15T09:33:51;97383.34;;;2.32;71.40
77299;BME280;66361;52.034;20.656;2024-01-15T09:37:41;97378.81;;;2.20;70.77
77299;BME280;66361;52.034;20.656;2024-01-15T09:41:29;97373.56;;;2.37;70.21
77299;BME280;66361;52.034;20.656;2024-01-15T09:45:13;97382.28;;;2.36;69.64
77299;BME280;66361;52.034;20.656;2024-01-15T09:48:58;97394.72;;;2.31;68.88
77299;BME280;66361;52.034;20.656;2024-01-15T09:52:44;97369.88;;;2.41;69.46
77299;BME280;66361;52.034;20.656;2024-01-15T09:56:28;97374.75;;;2.47;68.40
77299;BME280;66361;52.034;20.656;2024-01-15T10:00:13;97376.50;;;2.47;68.13
77299;BME280;66361;52.034;20.656;2024-01-15T10:03:58;97367.19;;;2.43;69.41
77299;BME280;66361;52.034;20.656;2024-01-15T10:07:42;97374.81;;;2.30;68.70
77299;BME280;66361;52.034;20.656;2024-01-15T10:11:32;97375.00;;;2.10;70.79
77299;BME280;66361;52.034;20.656;2024-01-15T10:15:16;97376.84;;;2.08;70.59
77299;BME280;66361;52.034;20.656;2024-01-15T10:19:00;97388.56;;;1.99;70.21
77299;BME280;66361;52.034;20.656;2024-01-15T10:22:45;97383.03;;;2.05;70.63
77299;BME280;66361;52.034;20.656;2024-01-15T10:26:32;97392.16;;;1.80;71.89
77299;BME280;66361;52.034;20.656;2024-01-15T10:30:16;97394.44;;;1.68;73.71
77299;BME280;66361;52.034;20.656;2024-01-15T10:34:12;97379.13;;;1.97;74.40
77299;BME280;66361;52.034;20.656;2024-01-15T10:37:58;97380.34;;;2.40;73.47
77299;BME280;66361;52.034;20.656;2024-01-15T10:41:43;97379.97;;;2.63;72.46
77299;BME280;66361;52.034;20.656;2024-01-15T10:45:28;97372.78;;;2.84;71.92
77299;BME280;66361;52.034;20.656;2024-01-15T10:49:12;97378.25;;;2.46;71.72
77299;BME280;66361;52.034;20.656;2024-01-15T10:52:56;97382.50;;;2.65;71.86
77299;BME280;66361;52.034;20.656;2024-01-15T10:56:41;97355.66;;;2.64;71.77
77299;BME280;66361;52.034;20.656;2024-01-15T11:00:26;97373.28;;;3.06;70.53
77299;BME280;66361;52.034;20.656;2024-01-15T11:04:11;97374.44;;;3.32;69.28
77299;BME280;66361;52.034;20.656;2024-01-15T11:07:55;97376.47;;;3.11;70.23
77299;BME280;66361;52.034;20.656;2024-01-15T11:11:44;97370.28;;;2.82;69.93
77299;BME280;66361;52.034;20.656;2024-01-15T11:15:59;97372.16;;;2.63;70.40
77299;BME280;66361;52.034;20.656;2024-01-15T11:19:45;97376.34;;;2.50;72.05
77299;BME280;66361;52.034;20.656;2024-01-15T11:23:42;97370.78;;;2.40;72.08
77299;BME280;66361;52.034;20.656;2024-01-15T11:27:40;97378.34;;;2.12;73.89
77299;BME280;66361;52.034;20.656;2024-01-15T11:31:30;97382.50;;;1.99;75.00
77299;BME280;66361;52.034;20.656;2024-01-15T11:35:48;97367.50;;;2.21;74.88
77299;BME280;66361;52.034;20.656;2024-01-15T11:39:42;97376.78;;;1.75;74.90
77299;BME280;66361;52.034;20.656;2024-01-15T11:43:28;97375.59;;;1.65;77.62
77299;BME280;66361;52.034;20.656;2024-01-15T11:47:15;97377.97;;;2.02;80.27
77299;BME280;66361;52.034;20.656;2024-01-15T11:51:00;97364.28;;;1.49;80.28
77299;BME280;66361;52.034;20.656;2024-01-15T11:54:50;97373.28;;;1.42;80.26
77299;BME280;66361;52.034;20.656;2024-01-15T11:58:39;97365.19;;;1.48;81.28
77299;BME280;66361;52.034;20.656;2024-01-15T12:02:26;97361.88;;;1.44;80.55
77299;BME280;66361;52.034;20.656;2024-01-15T12:06:10;97356.25;;;1.36;81.22
77299;BME280;66361;52.034;20.656;2024-01-15T12:09:55;97358.75;;;1.37;80.03
77299;BME280;66361;52.034;20.656;2024-01-15T12:13:38;97349.13;;;1.39;80.48
77299;BME280;66361;52.034;20.656;2024-01-15T12:17:22;97357.25;;;1.51;79.36
77299;BME280;66361;52.034;20.656;2024-01-15T12:21:09;97352.13;;;1.49;79.25
77299;BME280;66361;52.034;20.656;2024-01-15T12:24:53;97347.06;;;1.46;77.86
77299;BME280;66361;52.034;20.656;2024-01-15T12:28:37;97339.44;;;1.43;77.16
77299;BME280;66361;52.034;20.656;2024-01-15T12:32:23;97342.59;;;1.50;76.86
77299;BME280;66361;52.034;20.656;2024-01-15T12:36:09;97338.13;;;1.69;76.94
77299;BME280;66361;52.034;20.656;2024-01-15T12:39:53;97337.28;;;1.51;76.37
77299;BME280;66361;52.034;20.656;2024-01-15T12:43:37;97351.41;;;1.11;78.61
77299;BME280;66361;52.034;20.656;2024-01-15T12:47:23;97345.84;;;0.83;81.88
77299;BME280;66361;52.034;20.656;2024-01-15T12:51:09;97344.63;;;0.90;82.78
77299;BME280;66361;52.034;20.656;2024-01-15T12:54:53;97352.28;;;0.74;84.43
77299;BME280;66361;52.034;20.656;2024-01-15T12:58:37;97361.03;;;0.72;84.04
77299;BME280;66361;52.034;20.656;2024-01-15T13:02:23;97356.50;;;0.58;84.13
77299;BME280;66361;52.034;20.656;2024-01-15T13:06:07;97368.84;;;0.53;84.22
77299;BME280;66361;52.034;20.656;2024-01-15T13:09:52;97374.00;;;0.72;83.13
77299;BME280;66361;52.034;20.656;2024-01-15T13:13:36;97370.22;;;0.79;82.45
77299;BME280;66361;52.034;20.656;2024-01-15T13:17:20;97361.25;;;0.86;81.74
77299;BME280;66361;52.034;20.656;2024-01-15T13:21:06;97371.28;;;0.75;81.07
77299;BME280;66361;52.034;20.656;2024-01-15T13:24:52;97359.28;;;0.91;80.68
77299;BME280;66361;52.034;20.656;2024-01-15T13:28:36;97344.56;;;0.91;81.37
77299;BME280;66361;52.034;20.656;2024-01-15T13:32:24;97361.09;;;0.89;81.21
77299;BME280;66361;52.034;20.656;2024-01-15T13:36:09;97358.81;;;0.83;81.30
77299;BME280;66361;52.034;20.656;2024-01-15T13:39:54;97358.19;;;0.78;81.21
77299;BME280;66361;52.034;20.656;2024-01-15T13:43:39;97359.28;;;0.72;80.59
77299;BME280;66361;52.034;20.656;2024-01-15T13:47:23;97357.06;;;0.65;81.48
77299;BME280;66361;52.034;20.656;2024-01-15T13:51:07;97353.16;;;0.56;81.49
77299;BME280;66361;52.034;20.656;2024-01-15T13:54:50;97354.19;;;0.52;81.94
77299;BME280;66361;52.034;20.656;2024-01-15T13:58:36;97352.84;;;0.43;80.72
77299;BME280;66361;52.034;20.656;2024-01-15T14:02:20;97357.75;;;0.31;81.33
77299;BME280;66361;52.034;20.656;2024-01-15T14:06:07;97359.94;;;0.40;81.31
77299;BME280;66361;52.034;20.656;2024-01-15T14:09:53;97340.94;;;0.20;82.06
77299;BME280;66361;52.034;20.656;2024-01-15T14:13:38;97350.38;;;0.03;82.16
77299;BME280;66361;52.034;20.656;2024-01-15T14:17:22;97353.75;;;0.05;81.94
77299;BME280;66361;52.034;20.656;2024-01-15T14:21:06;97351.84;;;0.08;82.56
77299;BME280;66361;52.034;20.656;2024-01-15T14:24:50;97355.22;;;0.10;81.82
77299;BME280;66361;52.034;20.656;2024-01-15T14:28:35;97346.66;;;0.08;81.52
77299;BME280;66361;52.034;20.656;2024-01-15T14:32:20;97364.69;;;0.11;81.20
77299;BME280;66361;52.034;20.656;2024-01-15T14:36:05;97362.09;;;0.11;81.16
77299;BME280;66361;52.034;20.656;2024-01-15T14:39:49;97337.16;;;0.09;80.92
77299;BME280;66361;52.034;20.656;2024-01-15T14:43:34;97352.63;;;0.10;81.09
77299;BME280;66361;52.034;20.656;2024-01-15T14:47:18;97353.59;;;0.08;80.60
77299;BME280;66361;52.034;20.656;2024-01-15T14:51:08;97363.38;;;0.01;80.91
77299;BME280;66361;52.034;20.656;2024-01-15T14:54:52;97359.00;;;0.03;80.52
77299;BME280;66361;52.034;20.656;2024-01-15T14:58:36;97345.97;;;0.05;80.88
77299;BME280;66361;52.034;20.656;2024-01-15T15:02:20;97364.09;;;0.05;80.54
77299;BME280;66361;52.034;20.656;2024-01-15T15:06:05;97365.91;;;0.03;80.39
77299;BME280;66361;52.034;20.656;2024-01-15T15:09:52;97364.34;;;-0.01;81.35
77299;BME280;66361;52.034;20.656;2024-01-15T15:13:36;97359.50;;;-0.09;81.61
77299;BME280;66361;52.034;20.656;2024-01-15T15:17:27;97371.03;;;-0.16;81.12
77299;BME280;66361;52.034;20.656;2024-01-15T15:21:11;97359.91;;;-0.18;81.53
77299;BME280;66361;52.034;20.656;2024-01-15T15:24:58;97361.94;;;-0.25;81.84
77299;BME280;66361;52.034;20.656;2024-01-15T15:28:42;97362.75;;;-0.24;81.45
77299;BME280;66361;52.034;20.656;2024-01-15T15:32:26;97358.50;;;-0.25;81.93
77299;BME280;66361;52.034;20.656;2024-01-15T15:36:10;97359.34;;;-0.25;81.40
77299;BME280;66361;52.034;20.656;2024-01-15T15:39:55;97356.59;;;-0.22;81.58
77299;BME280;66361;52.034;20.656;2024-01-15T15:43:40;97358.28;;;-0.21;81.56
77299;BME280;66361;52.034;20.656;2024-01-15T15:47:24;97351.31;;;-0.19;81.00
77299;BME280;66361;52.034;20.656;2024-01-15T15:51:09;97360.75;;;-0.17;80.92
77299;BME280;66361;52.034;20.656;2024-01-15T15:54:53;97346.75;;;-0.13;80.35
77299;BME280;66361;52.034;20.656;2024-01-15T15:58:37;97356.28;;;-0.14;80.34
77299;BME280;66361;52.034;20.656;2024-01-15T16:02:23;97357.97;;;-0.13;79.97
77299;BME280;66361;52.034;20.656;2024-01-15T16:06:07;97364.84;;;-0.12;79.41
77299;BME280;66361;52.034;20.656;2024-01-15T16:09:52;97358.88;;;-0.14;80.23
77299;BME280;66361;52.034;20.656;2024-01-15T16:13:37;97364.94;;;-0.15;79.87
77299;BME280;66361;52.034;20.656;2024-01-15T16:17:22;97359.66;;;-0.12;79.96
77299;BME280;66361;52.034;20.656;2024-01-15T16:21:26;97349.47;;;-0.17;79.99
77299;BME280;66361;52.034;20.656;2024-01-15T16:25:30;97343.53;;;-0.19;80.58
77299;BME280;66361;52.034;20.656;2024-01-15T16:29:14;97329.16;;;-0.26;80.57
77299;BME280;66361;52.034;20.656;2024-01-15T16:33:00;97349.22;;;-0.31;80.68
77299;BME280;66361;52.034;20.656;2024-01-15T16:36:43;97351.81;;;-0.31;81.38
77299;BME280;66361;52.034;20.656;2024-01-15T16:40:28;97340.75;;;-0.34;80.88
77299;BME280;66361;52.034;20.656;2024-01-15T16:44:13;97329.09;;;-0.44;81.44
77299;BME280;66361;52.034;20.656;2024-01-15T16:47:56;97349.69;;;-0.41;80.58
77299;BME280;66361;52.034;20.656;2024-01-15T16:51:41;97340.50;;;-0.48;80.83
77299;BME280;66361;52.034;20.656;2024-01-15T16:55:25;97340.25;;;-0.63;80.90
77299;BME280;66361;52.034;20.656;2024-01-15T16:59:10;97346.84;;;-0.76;80.82
77299;BME280;66361;52.034;20.656;2024-01-15T17:02:54;97336.84;;;-0.85;81.06
77299;BME280;66361;52.034;20.656;2024-01-15T17:06:38;97330.31;;;-0.73;80.92
77299;BME280;66361;52.034;20.656;2024-01-15T17:10:24;97336.84;;;-0.85;80.69
77299;BME280;66361;52.034;20.656;2024-01-15T17:14:07;97339.38;;;-0.83;81.46
77299;BME280;66361;52.034;20.656;2024-01-15T17:17:52;97345.69;;;-0.69;80.87
77299;BME280;66361;52.034;20.656;2024-01-15T17:21:36;97344.38;;;-0.59;80.75
77299;BME280;66361;52.034;20.656;2024-01-15T17:25:23;97341.19;;;-0.45;80.59
77299;BME280;66361;52.034;20.656;2024-01-15T17:29:09;97345.16;;;-0.36;80.67
77299;BME280;66361;52.034;20.656;2024-01-15T17:32:53;97349.16;;;-0.29;80.33
77299;BME280;66361;52.034;20.656;2024-01-15T17:36:38;97361.22;;;-0.28;79.90
77299;BME280;66361;52.034;20.656;2024-01-15T17:40:25;97350.72;;;-0.45;79.93
77299;BME280;66361;52.034;20.656;2024-01-15T17:44:08;97352.59;;;-0.29;79.43
77299;BME280;66361;52.034;20.656;2024-01-15T17:47:53;97365.09;;;-0.18;79.84
77299;BME280;66361;52.034;20.656;2024-01-15T17:51:37;97361.53;;;-0.15;79.55
77299;BME280;66361;52.034;20.656;2024-01-15T17:55:22;97370.47;;;-0.23;80.95
77299;BME280;66361;52.034;20.656;2024-01-15T17:59:08;97361.84;;;-0.23;80.71
77299;BME280;66361;52.034;20.656;2024-01-15T18:02:52;97360.31;;;-0.27;81.40
77299;BME280;66361;52.034;20.656;2024-01-15T18:06:38;97351.50;;;-0.23;80.90
77299;BME280;66361;52.034;20.656;2024-01-15T18:10:22;97350.59;;;-0.22;81.73
77299;BME280;66361;52.034;20.656;2024-01-15T18:14:08;97379.75;;;-0.17;81.02
77299;BME280;66361;52.034;20.656;2024-01-15T18:17:52;97390.69;;;-0.10;80.60
77299;BME280;66361;52.034;20.656;2024-01-15T18:21:37;97393.59;;;-0.18;82.25
77299;BME280;66361;52.034;20.656;2024-01-15T18:25:22;97397.34;;;-0.25;83.16
77299;BME280;66361;52.034;20.656;2024-01-15T18:29:07;97424.50;;;-0.35;84.70
77299;BME280;66361;52.034;20.656;2024-01-15T18:32:51;97442.91;;;-0.41;85.15
77299;BME280;66361;52.034;20.656;2024-01-15T18:36:36;97454.41;;;-0.48;86.31
77299;BME280;66361;52.034;20.656;2024-01-15T18:40:20;97450.44;;;-0.57;87.08
77299;BME280;66361;52.034;20.656;2024-01-15T18:44:04;97452.28;;;-0.61;87.55
77299;BME280;66361;52.034;20.656;2024-01-15T18:47:51;97464.41;;;-0.61;87.74
77299;BME280;66361;52.034;20.656;2024-01-15T18:51:35;97479.09;;;-0.62;87.95
77299;BME280;66361;52.034;20.656;2024-01-15T18:55:19;97475.56;;;-0.61;88.14
77299;BME280;66361;52.034;20.656;2024-01-15T18:59:03;97491.19;;;-0.62;88.38
77299;BME280;66361;52.034;20.656;2024-01-15T19:02:48;97491.34;;;-0.67;88.53
77299;BME280;66361;52.034;20.656;2024-01-15T19:06:34;97491.00;;;-0.79;87.92
77299;BME280;66361;52.034;20.656;2024-01-15T19:10:19;97497.63;;;-0.96;87.46
77299;BME280;66361;52.034;20.656;2024-01-15T19:14:02;97494.16;;;-1.18;86.60
77299;BME280;66361;52.034;20.656;2024-01-15T19:17:51;97493.81;;;-1.32;85.17
77299;BME280;66361;52.034;20.656;2024-01-15T19:21:37;97505.16;;;-1.34;84.40
77299;BME280;66361;52.034;20.656;2024-01-15T19:25:21;97514.78;;;-1.40;83.88
77299;BME280;66361;52.034;20.656;2024-01-15T19:29:05;97520.50;;;-1.55;83.46
77299;BME280;66361;52.034;20.656;2024-01-15T19:32:51;97532.66;;;-1.57;83.30
77299;BME280;66361;52.034;20.656;2024-01-15T19:36:37;97536.00;;;-1.55;82.57
77299;BME280;66361;52.034;20.656;2024-01-15T19:40:22;97516.66;;;-1.43;80.27
77299;BME280;66361;52.034;20.656;2024-01-15T19:44:06;97519.28;;;-1.45;78.93
77299;BME280;66361;52.034;20.656;2024-01-15T19:47:50;97517.84;;;-1.28;75.89
77299;BME280;66361;52.034;20.656;2024-01-15T19:51:37;97523.63;;;-1.22;74.13
77299;BME280;66361;52.034;20.656;2024-01-15T19:55:21;97526.03;;;-1.17;72.37